createdAt,value
2018-06-16T00:00:38.653Z,14.40
2018-06-16T00:02:06.169Z,14.37
2018-06-16T00:03:33.542Z,14.35
2018-06-16T00:05:01.951Z,14.34
2018-06-16T00:06:28.237Z,14.34
2018-06-16T00:07:55.960Z,14.33
2018-06-16T00:09:23.407Z,14.33
2018-06-16T00:10:51.018Z,14.34
2018-06-16T00:12:19.539Z,14.35
2018-06-16T00:13:46.903Z,14.36
2018-06-16T00:15:14.480Z,14.38
2018-06-16T00:16:40.748Z,14.39
2018-06-16T00:18:09.240Z,14.39
2018-06-16T00:19:35.443Z,14.37
2018-06-16T00:21:02.701Z,14.35
2018-06-16T00:22:30.137Z,14.34
2018-06-16T00:23:58.592Z,14.33
2018-06-16T00:25:25.932Z,14.31
2018-06-16T00:26:53.366Z,14.29
2018-06-16T00:28:25.769Z,14.25
2018-06-16T00:29:46.960Z,14.22
2018-06-16T00:31:14.157Z,14.18
2018-06-16T00:32:42.560Z,14.14
2018-06-16T00:34:09.982Z,14.08
2018-06-16T00:35:36.331Z,14.04
2018-06-16T00:37:05.204Z,13.98
2018-06-16T00:38:31.583Z,13.94
2018-06-16T00:39:59.113Z,13.90
2018-06-16T00:41:27.422Z,13.83
2018-06-16T00:42:53.729Z,13.78
2018-06-16T00:44:21.327Z,13.73
2018-06-16T00:45:48.652Z,13.69
2018-06-16T00:47:17.088Z,13.68
2018-06-16T00:48:44.440Z,13.67
2018-06-16T00:50:10.705Z,13.66
2018-06-16T00:51:38.065Z,13.66
2018-06-16T00:53:06.435Z,13.66
2018-06-16T00:54:33.976Z,13.67
2018-06-16T00:56:01.350Z,13.67
2018-06-16T00:57:28.859Z,13.69
2018-06-16T00:58:54.991Z,13.71
2018-06-16T01:00:22.276Z,13.73
2018-06-16T01:01:49.756Z,13.74
2018-06-16T01:03:17.095Z,13.74
2018-06-16T01:04:44.465Z,13.73
2018-06-16T01:06:12.835Z,13.73
2018-06-16T01:07:39.097Z,13.74
2018-06-16T01:09:09.572Z,13.76
2018-06-16T01:10:35.000Z,13.78
2018-06-16T01:12:01.089Z,13.79
2018-06-16T01:13:28.473Z,13.78
2018-06-16T01:14:55.988Z,13.78
2018-06-16T01:16:23.344Z,13.78
2018-06-16T01:17:51.655Z,13.77
2018-06-16T01:19:18.050Z,13.75
2018-06-16T01:20:45.500Z,13.73
2018-06-16T01:22:12.834Z,13.72
2018-06-16T01:23:40.081Z,13.71
2018-06-16T01:25:08.596Z,13.71
2018-06-16T01:26:34.824Z,13.69
2018-06-16T01:28:03.412Z,13.67
2018-06-16T01:29:30.783Z,13.65
2018-06-16T01:30:57.091Z,13.65
2018-06-16T01:32:24.416Z,13.63
2018-06-16T01:33:51.810Z,13.63
2018-06-16T01:35:19.148Z,13.63
2018-06-16T01:36:46.707Z,13.64
2018-06-16T01:38:14.964Z,13.62
2018-06-16T01:39:42.211Z,13.60
2018-06-16T01:41:08.560Z,13.57
2018-06-16T01:42:37.068Z,13.55
2018-06-16T01:44:04.258Z,13.53
2018-06-16T01:45:30.722Z,13.51
2018-06-16T01:46:59.341Z,13.50
2018-06-16T01:48:26.838Z,13.49
2018-06-16T01:49:54.215Z,13.48
2018-06-16T01:51:20.546Z,13.48
2018-06-16T01:52:49.091Z,13.45
2018-06-16T01:54:15.452Z,13.42
2018-06-16T01:55:43.910Z,13.42
2018-06-16T01:57:11.170Z,13.42
2018-06-16T01:58:37.432Z,13.43
2018-06-16T02:00:05.792Z,13.43
2018-06-16T02:01:32.082Z,13.42
2018-06-16T02:02:59.299Z,13.42
2018-06-16T02:04:26.728Z,13.41
2018-06-16T02:05:55.084Z,13.40
2018-06-16T02:07:21.420Z,13.39
2018-06-16T02:08:48.859Z,13.37
2018-06-16T02:10:16.158Z,13.33
2018-06-16T02:11:43.548Z,13.30
2018-06-16T02:13:10.681Z,13.28
2018-06-16T02:14:39.080Z,13.27
2018-06-16T02:16:06.465Z,13.26
2018-06-16T02:17:32.712Z,13.24
2018-06-16T02:18:59.992Z,13.22
2018-06-16T02:20:27.454Z,13.20
2018-06-16T02:21:54.691Z,13.17
2018-06-16T02:23:23.196Z,13.14
2018-06-16T02:24:49.258Z,13.11
2018-06-16T02:26:16.717Z,13.06
2018-06-16T02:27:43.866Z,13.04
2018-06-16T02:29:12.500Z,13.03
2018-06-16T02:30:38.656Z,13.01
2018-06-16T02:32:06.071Z,12.98
2018-06-16T02:33:33.659Z,12.98
2018-06-16T02:35:01.058Z,13.00
2018-06-16T02:36:29.458Z,13.03
2018-06-16T02:37:55.710Z,13.05
2018-06-16T02:39:23.119Z,13.08
2018-06-16T02:40:50.521Z,13.10
2018-06-16T02:42:17.979Z,13.12
2018-06-16T02:43:45.304Z,13.13
2018-06-16T02:45:12.901Z,13.13
2018-06-16T02:46:40.211Z,13.14
2018-06-16T02:48:08.450Z,13.14
2018-06-16T02:49:34.684Z,13.15
2018-06-16T02:51:03.130Z,13.15
2018-06-16T02:52:29.542Z,13.16
2018-06-16T02:53:56.793Z,13.19
2018-06-16T02:55:24.285Z,13.20
2018-06-16T02:56:51.464Z,13.21
2018-06-16T02:58:19.914Z,13.21
2018-06-16T02:59:46.269Z,13.21
2018-06-16T03:01:13.813Z,13.22
2018-06-16T03:02:42.154Z,13.22
2018-06-16T03:04:08.559Z,13.25
2018-06-16T03:05:36.869Z,13.28
2018-06-16T03:07:03.144Z,13.31
2018-06-16T03:08:30.557Z,13.33
2018-06-16T03:09:58.936Z,13.33
2018-06-16T03:11:26.360Z,13.33
2018-06-16T03:12:53.896Z,13.32
2018-06-16T03:14:21.197Z,13.32
2018-06-16T03:15:47.448Z,13.32
2018-06-16T03:17:15.820Z,13.33
2018-06-16T03:18:43.218Z,13.33
2018-06-16T03:20:09.350Z,13.33
2018-06-16T03:21:36.869Z,13.34
2018-06-16T03:23:04.029Z,13.35
2018-06-16T03:24:31.581Z,13.36
2018-06-16T03:25:58.871Z,13.37
2018-06-16T03:27:26.316Z,13.37
2018-06-16T03:28:54.830Z,13.39
2018-06-16T03:30:21.155Z,13.41
2018-06-16T03:31:48.474Z,13.44
2018-06-16T03:33:16.880Z,13.47
2018-06-16T03:34:43.183Z,13.49
2018-06-16T03:36:10.614Z,13.49
2018-06-16T03:37:38.911Z,13.50
2018-06-16T03:39:06.158Z,13.51
2018-06-16T03:40:32.443Z,13.52
2018-06-16T03:42:00.760Z,13.53
2018-06-16T03:43:27.206Z,13.54
2018-06-16T03:44:54.554Z,13.55
2018-06-16T03:46:21.912Z,13.55
2018-06-16T03:47:50.451Z,13.54
2018-06-16T03:49:17.785Z,13.56
2018-06-16T03:50:44.114Z,13.60
2018-06-16T03:52:12.393Z,13.61
2018-06-16T03:53:38.635Z,13.62
2018-06-16T03:55:07.167Z,13.64
2018-06-16T03:56:33.413Z,13.66
2018-06-16T03:58:00.872Z,13.68
2018-06-16T03:59:27.968Z,13.71
2018-06-16T04:00:56.262Z,13.75
2018-06-16T04:02:22.749Z,13.79
2018-06-16T04:03:49.872Z,13.83
2018-06-16T04:05:18.430Z,13.86
2018-06-16T04:06:44.716Z,13.92
2018-06-16T04:08:11.954Z,13.97
2018-06-16T04:09:39.253Z,14.01
2018-06-16T04:11:06.451Z,14.05
2018-06-16T04:12:35.021Z,14.08
2018-06-16T04:14:02.489Z,14.10
2018-06-16T04:15:28.805Z,14.11
2018-06-16T04:16:56.232Z,14.10
2018-06-16T04:18:23.586Z,14.12
2018-06-16T04:19:50.834Z,14.14
2018-06-16T04:21:19.263Z,14.17
2018-06-16T04:22:45.673Z,14.20
2018-06-16T04:24:13.108Z,14.21
2018-06-16T04:25:41.563Z,14.23
2018-06-16T04:27:07.842Z,14.24
2018-06-16T04:28:35.229Z,14.25
2018-06-16T04:30:02.846Z,14.26
2018-06-16T04:31:30.169Z,14.29
2018-06-16T04:32:57.520Z,14.32
2018-06-16T04:34:24.977Z,14.36
2018-06-16T04:35:52.366Z,14.40
2018-06-16T04:37:19.810Z,14.44
2018-06-16T04:38:48.148Z,14.48
2018-06-16T04:40:15.617Z,14.52
2018-06-16T04:41:41.628Z,14.59
2018-06-16T04:43:08.894Z,14.64
2018-06-16T04:44:37.456Z,14.70
2018-06-16T04:46:04.661Z,14.77
2018-06-16T04:47:31.009Z,14.84
2018-06-16T04:48:59.354Z,14.92
2018-06-16T04:50:26.674Z,14.99
2018-06-16T04:51:53.079Z,15.06
2018-06-16T04:53:21.420Z,15.13
2018-06-16T04:54:47.867Z,15.20
2018-06-16T04:56:16.261Z,15.28
2018-06-16T04:57:43.567Z,15.35
2018-06-16T04:59:10.800Z,15.43
2018-06-16T05:00:37.250Z,15.51
2018-06-16T05:02:04.441Z,15.59
2018-06-16T05:03:31.865Z,15.68
2018-06-16T05:04:59.160Z,15.76
2018-06-16T05:06:26.709Z,15.83
2018-06-16T05:07:54.133Z,15.90
2018-06-16T05:09:22.645Z,15.98
2018-06-16T05:10:48.941Z,16.06
2018-06-16T05:12:17.246Z,16.14
2018-06-16T05:13:44.779Z,16.24
2018-06-16T05:15:12.025Z,16.32
2018-06-16T05:16:38.265Z,16.38
2018-06-16T05:18:05.779Z,16.45
2018-06-16T05:19:33.334Z,16.55
2018-06-16T05:21:00.835Z,16.65
2018-06-16T05:22:28.434Z,16.75
2018-06-16T05:23:56.926Z,16.85
2018-06-16T05:25:23.320Z,16.94
2018-06-16T05:26:50.860Z,17.02
2018-06-16T05:28:18.323Z,17.10
2018-06-16T05:29:45.723Z,17.20
2018-06-16T05:31:14.035Z,17.31
2018-06-16T05:32:41.425Z,17.41
2018-06-16T05:34:07.780Z,17.57
2018-06-16T05:35:35.195Z,17.81
2018-06-16T05:37:02.537Z,18.21
2018-06-16T05:38:31.209Z,18.70
2018-06-16T05:39:57.871Z,19.15
2018-06-16T05:41:26.516Z,19.50
2018-06-16T05:42:53.173Z,19.82
2018-06-16T05:44:20.735Z,20.11
2018-06-16T05:45:48.196Z,20.34
2018-06-16T05:47:15.832Z,20.50
2018-06-16T05:48:44.095Z,20.60
2018-06-16T05:50:10.669Z,20.59
2018-06-16T05:51:38.186Z,20.49
2018-06-16T05:53:06.864Z,20.49
2018-06-16T05:54:33.338Z,20.43
2018-06-16T05:56:00.913Z,20.47
2018-06-16T05:57:28.382Z,20.56
2018-06-16T05:58:56.073Z,20.67
2018-06-16T06:00:24.829Z,20.71
2018-06-16T06:01:51.127Z,20.61
2018-06-16T06:03:19.790Z,20.58
2018-06-16T06:04:47.319Z,20.44
2018-06-16T06:06:13.785Z,20.33
2018-06-16T06:07:42.096Z,20.33
2018-06-16T06:09:08.639Z,20.39
2018-06-16T06:10:39.385Z,20.41
2018-06-16T06:12:03.752Z,20.37
2018-06-16T06:13:31.303Z,20.35
2018-06-16T06:14:59.823Z,20.30
2018-06-16T06:16:27.347Z,20.26
2018-06-16T06:17:54.805Z,20.23
2018-06-16T06:19:21.432Z,20.15
2018-06-16T06:20:48.780Z,20.19
2018-06-16T06:22:16.318Z,20.23
2018-06-16T06:23:43.672Z,20.37
2018-06-16T06:25:11.333Z,20.49
2018-06-16T06:26:39.838Z,20.65
2018-06-16T06:28:06.432Z,20.85
2018-06-16T06:29:34.065Z,21.05
2018-06-16T06:31:01.642Z,21.28
2018-06-16T06:32:29.248Z,21.50
2018-06-16T06:33:56.811Z,21.72
2018-06-16T06:35:24.560Z,21.92
2018-06-16T06:36:52.060Z,21.98
2018-06-16T06:38:19.860Z,21.97
2018-06-16T06:39:47.427Z,22.06
2018-06-16T06:41:15.049Z,22.26
2018-06-16T06:42:43.847Z,22.36
2018-06-16T06:44:10.159Z,22.48
2018-06-16T06:45:37.804Z,22.55
2018-06-16T06:47:06.405Z,22.54
2018-06-16T06:48:33.077Z,22.80
2018-06-16T06:50:00.642Z,23.16
2018-06-16T06:51:29.382Z,23.46
2018-06-16T06:52:57.090Z,23.54
2018-06-16T06:54:23.735Z,23.56
2018-06-16T06:55:51.278Z,23.32
2018-06-16T06:57:18.866Z,23.07
2018-06-16T06:58:46.382Z,23.05
2018-06-16T07:00:13.998Z,22.95
2018-06-16T07:01:41.431Z,22.65
2018-06-16T07:03:10.048Z,22.55
2018-06-16T07:04:36.631Z,22.53
2018-06-16T07:06:03.994Z,22.56
2018-06-16T07:07:31.486Z,22.57
2018-06-16T07:08:59.148Z,22.50
2018-06-16T07:10:26.769Z,22.39
2018-06-16T07:11:53.996Z,22.27
2018-06-16T07:13:21.553Z,22.20
2018-06-16T07:14:49.287Z,22.18
2018-06-16T07:16:16.437Z,22.34
2018-06-16T07:17:43.933Z,22.60
2018-06-16T07:19:11.410Z,22.89
2018-06-16T07:20:39.107Z,23.12
2018-06-16T07:22:06.413Z,23.24
2018-06-16T07:23:33.980Z,23.20
2018-06-16T07:25:01.501Z,23.18
2018-06-16T07:26:29.161Z,23.15
2018-06-16T07:27:56.664Z,22.91
2018-06-16T07:29:25.430Z,22.64
2018-06-16T07:30:52.779Z,22.45
2018-06-16T07:32:19.184Z,22.25
2018-06-16T07:33:47.627Z,22.24
2018-06-16T07:35:15.069Z,22.28
2018-06-16T07:36:41.500Z,22.34
2018-06-16T07:38:09.123Z,22.41
2018-06-16T07:39:36.646Z,22.47
2018-06-16T07:41:03.849Z,22.54
2018-06-16T07:42:32.460Z,22.61
2018-06-16T07:43:59.627Z,22.62
2018-06-16T07:45:26.066Z,22.56
2018-06-16T07:46:54.648Z,22.57
2018-06-16T07:48:21.213Z,22.60
2018-06-16T07:49:48.788Z,22.68
2018-06-16T07:51:16.271Z,22.78
2018-06-16T07:52:43.716Z,22.84
2018-06-16T07:54:11.310Z,22.88
2018-06-16T07:55:39.997Z,22.92
2018-06-16T07:57:06.628Z,22.93
2018-06-16T07:58:35.204Z,22.93
2018-06-16T08:00:01.589Z,22.97
2018-06-16T08:01:29.211Z,23.02
2018-06-16T08:02:56.850Z,23.05
2018-06-16T08:04:24.262Z,23.08
2018-06-16T08:05:52.915Z,23.12
2018-06-16T08:07:19.501Z,23.17
2018-06-16T08:08:46.924Z,23.22
2018-06-16T08:10:14.599Z,23.27
2018-06-16T08:11:42.000Z,23.28
2018-06-16T08:13:09.542Z,23.31
2018-06-16T08:14:37.008Z,23.34
2018-06-16T08:16:04.560Z,23.40
2018-06-16T08:17:32.116Z,23.45
2018-06-16T08:18:59.740Z,23.49
2018-06-16T08:20:27.059Z,23.46
2018-06-16T08:21:54.613Z,23.50
2018-06-16T08:23:22.238Z,23.53
2018-06-16T08:24:50.680Z,23.48
2018-06-16T08:26:17.275Z,23.52
2018-06-16T08:27:45.915Z,23.56
2018-06-16T08:29:12.450Z,23.54
2018-06-16T08:30:40.923Z,23.52
2018-06-16T08:32:08.439Z,23.55
2018-06-16T08:33:34.994Z,23.59
2018-06-16T08:35:02.560Z,23.64
2018-06-16T08:36:31.200Z,23.69
2018-06-16T08:37:57.750Z,23.76
2018-06-16T08:39:25.338Z,23.81
2018-06-16T08:40:52.848Z,23.87
2018-06-16T08:42:20.493Z,23.90
2018-06-16T08:43:47.682Z,23.91
2018-06-16T08:45:15.245Z,23.92
2018-06-16T08:46:42.696Z,23.92
2018-06-16T08:48:10.179Z,23.91
2018-06-16T08:49:38.597Z,23.91
2018-06-16T08:51:06.333Z,23.80
2018-06-16T08:52:32.953Z,23.82
2018-06-16T08:54:01.479Z,23.83
2018-06-16T08:55:27.986Z,23.89
2018-06-16T08:56:55.458Z,23.95
2018-06-16T08:58:23.211Z,23.96
2018-06-16T08:59:51.810Z,23.89
2018-06-16T09:01:18.413Z,23.82
2018-06-16T09:02:46.034Z,23.86
2018-06-16T09:04:13.549Z,23.89
2018-06-16T09:05:42.062Z,23.92
2018-06-16T09:07:08.676Z,23.98
2018-06-16T09:08:37.275Z,24.08
2018-06-16T09:10:03.758Z,24.11
2018-06-16T09:11:31.590Z,24.13
2018-06-16T09:13:00.016Z,24.15
2018-06-16T09:14:26.658Z,24.13
2018-06-16T09:15:54.149Z,24.18
2018-06-16T09:17:21.484Z,24.24
2018-06-16T09:18:49.067Z,24.28
2018-06-16T09:20:17.693Z,24.32
2018-06-16T09:21:45.209Z,24.35
2018-06-16T09:23:11.710Z,24.40
2018-06-16T09:24:38.951Z,24.45
2018-06-16T09:26:06.633Z,24.52
2018-06-16T09:27:35.264Z,24.57
2018-06-16T09:29:02.782Z,24.58
2018-06-16T09:30:29.380Z,24.54
2018-06-16T09:31:57.033Z,24.48
2018-06-16T09:33:24.639Z,24.42
2018-06-16T09:34:52.348Z,24.45
2018-06-16T09:36:20.037Z,24.45
2018-06-16T09:37:48.576Z,24.50
2018-06-16T09:39:16.304Z,24.49
2018-06-16T09:40:42.854Z,24.52
2018-06-16T09:42:10.304Z,24.55
2018-06-16T09:43:38.036Z,24.61
2018-06-16T09:45:06.636Z,24.67
2018-06-16T09:46:33.205Z,24.66
2018-06-16T09:48:00.832Z,24.70
2018-06-16T09:49:28.340Z,24.69
2018-06-16T09:50:56.076Z,24.70
2018-06-16T09:52:23.697Z,24.66
2018-06-16T09:53:51.294Z,24.61
2018-06-16T09:55:18.988Z,24.58
2018-06-16T09:56:46.571Z,24.55
2018-06-16T09:58:13.984Z,24.51
2018-06-16T09:59:41.700Z,24.45
2018-06-16T10:01:09.238Z,24.43
2018-06-16T10:02:37.849Z,24.42
2018-06-16T10:04:05.446Z,24.42
2018-06-16T10:05:32.022Z,24.47
2018-06-16T10:06:59.677Z,24.48
2018-06-16T10:08:27.291Z,24.55
2018-06-16T10:09:55.973Z,24.61
2018-06-16T10:11:23.544Z,24.68
2018-06-16T10:12:51.232Z,24.74
2018-06-16T10:14:17.686Z,24.79
2018-06-16T10:15:45.330Z,24.84
2018-06-16T10:17:13.060Z,24.88
2018-06-16T10:18:40.558Z,24.82
2018-06-16T10:20:08.426Z,24.84
2018-06-16T10:21:36.014Z,24.90
2018-06-16T10:23:03.705Z,24.89
2018-06-16T10:24:31.305Z,24.95
2018-06-16T10:25:59.033Z,25.03
2018-06-16T10:27:26.677Z,25.12
2018-06-16T10:28:55.284Z,25.19
2018-06-16T10:30:22.901Z,25.25
2018-06-16T10:31:49.512Z,25.27
2018-06-16T10:33:17.154Z,25.25
2018-06-16T10:34:44.659Z,25.16
2018-06-16T10:36:12.095Z,25.17
2018-06-16T10:37:39.542Z,25.19
2018-06-16T10:39:07.212Z,25.16
2018-06-16T10:40:35.801Z,25.11
2018-06-16T10:42:03.397Z,25.03
2018-06-16T10:43:29.789Z,24.95
2018-06-16T10:44:58.550Z,24.92
2018-06-16T10:46:25.111Z,24.90
2018-06-16T10:47:52.603Z,24.88
2018-06-16T10:49:20.148Z,24.87
2018-06-16T10:50:48.969Z,24.85
2018-06-16T10:52:15.617Z,24.81
2018-06-16T10:53:44.247Z,24.82
2018-06-16T10:55:11.797Z,24.90
2018-06-16T10:56:38.405Z,25.01
2018-06-16T10:58:06.948Z,25.16
2018-06-16T10:59:33.597Z,25.32
2018-06-16T11:01:01.350Z,25.40
2018-06-16T11:02:29.029Z,25.43
2018-06-16T11:03:57.520Z,25.43
2018-06-16T11:05:25.069Z,25.45
2018-06-16T11:06:51.738Z,25.46
2018-06-16T11:08:20.341Z,25.55
2018-06-16T11:09:47.981Z,25.62
2018-06-16T11:11:14.528Z,25.71
2018-06-16T11:12:43.135Z,25.84
2018-06-16T11:14:09.524Z,25.91
2018-06-16T11:15:43.154Z,25.92
2018-06-16T11:17:04.607Z,25.94
2018-06-16T11:18:32.254Z,25.94
2018-06-16T11:20:00.657Z,25.91
2018-06-16T11:21:28.396Z,25.92
2018-06-16T11:22:56.004Z,25.90
2018-06-16T11:24:22.690Z,25.77
2018-06-16T11:25:51.354Z,25.63
2018-06-16T11:27:18.013Z,25.61
2018-06-16T11:28:45.570Z,25.65
2018-06-16T11:30:14.229Z,25.73
2018-06-16T11:31:40.897Z,25.80
2018-06-16T11:33:09.475Z,25.81
2018-06-16T11:34:37.140Z,25.74
2018-06-16T11:36:03.838Z,25.70
2018-06-16T11:37:31.439Z,25.63
2018-06-16T11:38:59.110Z,25.61
2018-06-16T11:40:26.766Z,25.57
2018-06-16T11:41:55.482Z,25.49
2018-06-16T11:43:23.179Z,25.41
2018-06-16T11:44:49.817Z,25.35
2018-06-16T11:46:17.491Z,25.46
2018-06-16T11:47:45.142Z,25.58
2018-06-16T11:49:13.439Z,25.67
2018-06-16T11:50:39.905Z,25.73
2018-06-16T11:52:07.404Z,25.79
2018-06-16T11:53:34.998Z,25.84
2018-06-16T11:55:03.874Z,25.96
2018-06-16T11:56:31.471Z,26.02
2018-06-16T11:57:58.191Z,26.02
2018-06-16T11:59:26.424Z,26.04
2018-06-16T12:00:53.093Z,26.16
2018-06-16T12:02:20.670Z,26.33
2018-06-16T12:03:47.131Z,26.44
2018-06-16T12:05:15.835Z,26.56
2018-06-16T12:06:43.455Z,26.52
2018-06-16T12:08:11.058Z,26.56
2018-06-16T12:09:38.621Z,26.69
2018-06-16T12:11:06.411Z,26.69
2018-06-16T12:12:34.993Z,26.60
2018-06-16T12:14:01.468Z,26.48
2018-06-16T12:15:29.309Z,26.45
2018-06-16T12:16:56.700Z,26.39
2018-06-16T12:18:23.927Z,26.34
2018-06-16T12:19:52.697Z,26.26
2018-06-16T12:21:19.172Z,26.12
2018-06-16T12:22:46.233Z,25.85
2018-06-16T12:24:13.739Z,25.67
2018-06-16T12:25:41.336Z,25.57
2018-06-16T12:27:09.852Z,25.44
2018-06-16T12:28:36.477Z,25.29
2018-06-16T12:30:04.059Z,25.19
2018-06-16T12:31:31.531Z,25.07
2018-06-16T12:33:00.317Z,24.98
2018-06-16T12:34:26.738Z,24.96
2018-06-16T12:35:55.409Z,24.99
2018-06-16T12:37:22.062Z,25.10
2018-06-16T12:38:49.390Z,25.17
2018-06-16T12:40:17.205Z,25.27
2018-06-16T12:41:44.914Z,25.44
2018-06-16T12:43:12.395Z,25.60
2018-06-16T12:44:40.978Z,25.74
2018-06-16T12:46:08.620Z,25.82
2018-06-16T12:47:35.076Z,25.87
2018-06-16T12:49:02.712Z,25.96
2018-06-16T12:50:31.529Z,25.97
2018-06-16T12:51:58.387Z,25.91
2018-06-16T12:53:26.133Z,25.74
2018-06-16T12:54:53.469Z,25.59
2018-06-16T12:56:21.138Z,25.53
2018-06-16T12:57:48.761Z,25.43
2018-06-16T12:59:17.375Z,25.33
2018-06-16T13:00:43.858Z,25.24
2018-06-16T13:02:11.452Z,25.19
2018-06-16T13:03:39.045Z,25.19
2018-06-16T13:05:07.307Z,25.13
2018-06-16T13:06:34.791Z,25.09
2018-06-16T13:08:02.293Z,25.05
2018-06-16T13:09:28.934Z,24.97
2018-06-16T13:10:56.548Z,24.93
2018-06-16T13:12:24.133Z,24.90
2018-06-16T13:13:51.777Z,24.90
2018-06-16T13:15:19.375Z,24.89
2018-06-16T13:16:46.997Z,24.90
2018-06-16T13:18:14.600Z,24.92
2018-06-16T13:19:42.308Z,24.94
2018-06-16T13:21:10.659Z,24.91
2018-06-16T13:22:38.382Z,24.91
2018-06-16T13:24:04.842Z,24.90
2018-06-16T13:25:33.467Z,24.90
2018-06-16T13:27:01.034Z,24.93
2018-06-16T13:28:27.685Z,24.96
2018-06-16T13:29:56.302Z,25.00
2018-06-16T13:31:22.975Z,25.05
2018-06-16T13:32:50.598Z,25.09
2018-06-16T13:34:19.345Z,25.10
2018-06-16T13:35:45.792Z,25.14
2018-06-16T13:37:13.449Z,25.19
2018-06-16T13:38:41.052Z,25.25
2018-06-16T13:40:09.842Z,25.29
2018-06-16T13:41:36.626Z,25.32
2018-06-16T13:43:05.411Z,25.30
2018-06-16T13:44:32.009Z,25.28
2018-06-16T13:46:00.423Z,25.26
2018-06-16T13:47:27.940Z,25.21
2018-06-16T13:48:54.615Z,25.15
2018-06-16T13:50:22.363Z,25.15
2018-06-16T13:51:50.051Z,25.17
2018-06-16T13:53:17.584Z,25.18
2018-06-16T13:54:46.180Z,25.19
2018-06-16T13:56:13.802Z,25.21
2018-06-16T13:57:41.316Z,25.22
2018-06-16T13:59:08.946Z,25.22
2018-06-16T14:00:35.491Z,25.18
2018-06-16T14:02:03.092Z,25.19
2018-06-16T14:03:30.791Z,25.21
2018-06-16T14:04:58.409Z,25.20
2018-06-16T14:06:26.975Z,25.23
2018-06-16T14:07:53.663Z,25.24
2018-06-16T14:09:21.207Z,25.28
2018-06-16T14:10:48.924Z,25.30
2018-06-16T14:12:16.484Z,25.32
2018-06-16T14:13:45.108Z,25.33
2018-06-16T14:15:11.673Z,25.36
2018-06-16T14:16:39.326Z,25.41
2018-06-16T14:18:06.999Z,25.43
2018-06-16T14:19:34.571Z,25.45
2018-06-16T14:21:02.128Z,25.46
2018-06-16T14:22:29.772Z,25.47
2018-06-16T14:23:58.444Z,25.48
2018-06-16T14:25:26.016Z,25.50
2018-06-16T14:26:52.666Z,25.52
2018-06-16T14:28:21.314Z,25.53
2018-06-16T14:29:47.953Z,25.52
2018-06-16T14:31:16.640Z,25.51
2018-06-16T14:32:43.176Z,25.52
2018-06-16T14:34:10.755Z,25.52
2018-06-16T14:35:38.318Z,25.50
2018-06-16T14:37:05.927Z,25.50
2018-06-16T14:38:34.607Z,25.50
2018-06-16T14:40:02.242Z,25.48
2018-06-16T14:41:28.904Z,25.49
2018-06-16T14:42:57.507Z,25.49
2018-06-16T14:44:25.068Z,25.48
2018-06-16T14:45:51.674Z,25.47
2018-06-16T14:47:25.301Z,25.46
2018-06-16T14:48:46.912Z,25.45
2018-06-16T14:50:15.503Z,25.45
2018-06-16T14:51:42.099Z,25.42
2018-06-16T14:53:09.314Z,25.43
2018-06-16T14:54:37.037Z,25.43
2018-06-16T14:56:04.718Z,25.43
2018-06-16T14:57:32.204Z,25.39
2018-06-16T14:59:00.780Z,25.38
2018-06-16T15:00:27.391Z,25.38
2018-06-16T15:01:55.972Z,25.32
2018-06-16T15:03:22.532Z,25.30
2018-06-16T15:04:50.220Z,25.29
2018-06-16T15:06:18.805Z,25.30
2018-06-16T15:07:45.445Z,25.31
2018-06-16T15:09:14.093Z,25.31
2018-06-16T15:10:40.562Z,25.32
2018-06-16T15:12:08.293Z,25.29
2018-06-16T15:13:35.727Z,25.29
2018-06-16T15:15:03.302Z,25.30
2018-06-16T15:16:30.862Z,25.32
2018-06-16T15:17:58.369Z,25.34
2018-06-16T15:19:26.347Z,25.33
2018-06-16T15:20:53.898Z,25.33
2018-06-16T15:22:21.533Z,25.36
2018-06-16T15:23:49.347Z,25.39
2018-06-16T15:25:17.096Z,25.40
2018-06-16T15:26:44.623Z,25.42
2018-06-16T15:28:12.093Z,25.43
2018-06-16T15:29:40.704Z,25.44
2018-06-16T15:31:08.138Z,25.45
2018-06-16T15:32:34.871Z,25.45
2018-06-16T15:34:02.449Z,25.44
2018-06-16T15:35:30.083Z,25.44
2018-06-16T15:36:57.748Z,25.43
2018-06-16T15:38:26.425Z,25.43
2018-06-16T15:39:52.972Z,25.43
2018-06-16T15:41:21.354Z,25.44
2018-06-16T15:42:48.045Z,25.45
2018-06-16T15:44:15.667Z,25.46
2018-06-16T15:45:44.265Z,25.47
2018-06-16T15:47:11.839Z,25.48
2018-06-16T15:48:39.509Z,25.48
2018-06-16T15:50:06.257Z,25.48
2018-06-16T15:51:34.011Z,25.49
2018-06-16T15:53:01.495Z,25.51
2018-06-16T15:54:29.125Z,25.52
2018-06-16T15:55:57.449Z,25.52
2018-06-16T15:57:24.167Z,25.53
2018-06-16T15:58:51.802Z,25.54
2018-06-16T16:00:19.352Z,25.55
2018-06-16T16:01:46.961Z,25.56
2018-06-16T16:03:14.666Z,25.57
2018-06-16T16:04:43.261Z,25.57
2018-06-16T16:06:10.715Z,25.57
2018-06-16T16:07:37.260Z,25.58
2018-06-16T16:09:06.068Z,25.58
2018-06-16T16:10:32.740Z,25.58
2018-06-16T16:12:00.185Z,25.57
2018-06-16T16:13:28.840Z,25.56
2018-06-16T16:14:55.416Z,25.56
2018-06-16T16:16:23.119Z,25.55
2018-06-16T16:17:50.685Z,25.54
2018-06-16T16:19:18.371Z,25.54
2018-06-16T16:20:45.806Z,25.53
2018-06-16T16:22:13.313Z,25.51
2018-06-16T16:23:40.990Z,25.50
2018-06-16T16:25:08.688Z,25.48
2018-06-16T16:26:36.353Z,25.46
2018-06-16T16:28:04.005Z,25.45
2018-06-16T16:29:31.778Z,25.43
2018-06-16T16:30:59.399Z,25.42
2018-06-16T16:32:26.592Z,25.40
2018-06-16T16:33:54.101Z,25.38
2018-06-16T16:35:22.631Z,25.34
2018-06-16T16:36:49.331Z,25.31
2018-06-16T16:38:17.935Z,25.28
2018-06-16T16:39:44.559Z,25.25
2018-06-16T16:41:12.216Z,25.23
2018-06-16T16:42:39.622Z,25.21
2018-06-16T16:44:07.344Z,25.19
2018-06-16T16:45:35.978Z,25.18
2018-06-16T16:47:02.580Z,25.16
2018-06-16T16:48:31.367Z,25.15
2018-06-16T16:49:58.075Z,25.14
2018-06-16T16:51:25.562Z,25.12
2018-06-16T16:52:54.144Z,25.10
2018-06-16T16:54:21.709Z,25.08
2018-06-16T16:55:48.156Z,25.06
2018-06-16T16:57:15.836Z,25.04
2018-06-16T16:58:44.255Z,25.02
2018-06-16T17:00:11.670Z,25.00
2018-06-16T17:01:38.333Z,24.97
2018-06-16T17:03:06.052Z,24.95
2018-06-16T17:04:33.747Z,24.93
2018-06-16T17:06:01.519Z,24.91
2018-06-16T17:07:28.887Z,24.89
2018-06-16T17:08:56.460Z,24.87
2018-06-16T17:10:25.132Z,24.85
2018-06-16T17:11:51.726Z,24.83
2018-06-16T17:13:19.186Z,24.81
2018-06-16T17:14:46.762Z,24.79
2018-06-16T17:16:15.381Z,24.77
2018-06-16T17:17:41.973Z,24.75
2018-06-16T17:19:09.551Z,24.72
2018-06-16T17:20:37.135Z,24.70
2018-06-16T17:22:04.786Z,24.67
2018-06-16T17:23:32.447Z,24.64
2018-06-16T17:25:00.122Z,24.61
2018-06-16T17:26:27.655Z,24.58
2018-06-16T17:27:55.324Z,24.54
2018-06-16T17:29:23.993Z,24.51
2018-06-16T17:30:51.301Z,24.48
2018-06-16T17:32:18.942Z,24.45
2018-06-16T17:33:46.502Z,24.41
2018-06-16T17:35:12.942Z,24.37
2018-06-16T17:36:40.483Z,24.34
2018-06-16T17:38:09.194Z,24.31
2018-06-16T17:39:35.666Z,24.27
2018-06-16T17:41:03.113Z,24.24
2018-06-16T17:42:30.862Z,24.21
2018-06-16T17:43:58.232Z,24.18
2018-06-16T17:45:26.917Z,24.16
2018-06-16T17:46:53.570Z,24.13
2018-06-16T17:48:22.286Z,24.11
2018-06-16T17:49:48.801Z,24.08
2018-06-16T17:51:16.288Z,24.06
2018-06-16T17:52:44.839Z,24.03
2018-06-16T17:54:11.259Z,24.01
2018-06-16T17:55:38.968Z,23.98
2018-06-16T17:57:06.556Z,23.96
2018-06-16T17:58:35.157Z,23.93
2018-06-16T18:00:02.634Z,23.91
2018-06-16T18:01:29.251Z,23.89
2018-06-16T18:02:56.924Z,23.87
2018-06-16T18:04:24.172Z,23.84
2018-06-16T18:05:52.799Z,23.80
2018-06-16T18:07:19.174Z,23.78
2018-06-16T18:08:46.663Z,23.75
2018-06-16T18:10:14.170Z,23.73
2018-06-16T18:11:41.587Z,23.70
2018-06-16T18:13:09.221Z,23.68
2018-06-16T18:14:36.885Z,23.66
2018-06-16T18:16:04.482Z,23.65
2018-06-16T18:17:32.118Z,23.63
2018-06-16T18:18:59.754Z,23.59
2018-06-16T18:20:28.427Z,23.55
2018-06-16T18:21:54.949Z,23.51
2018-06-16T18:23:22.472Z,23.47
2018-06-16T18:24:50.135Z,23.45
2018-06-16T18:26:17.849Z,23.43
2018-06-16T18:27:45.512Z,23.42
2018-06-16T18:29:14.159Z,23.41
2018-06-16T18:30:41.613Z,23.40
2018-06-16T18:32:08.224Z,23.37
2018-06-16T18:33:36.816Z,23.36
2018-06-16T18:35:03.358Z,23.33
2018-06-16T18:36:30.984Z,23.29
2018-06-16T18:37:58.642Z,23.27
2018-06-16T18:39:26.195Z,23.26
2018-06-16T18:40:53.728Z,23.25
2018-06-16T18:42:22.350Z,23.24
2018-06-16T18:43:49.919Z,23.22
2018-06-16T18:45:17.420Z,23.18
2018-06-16T18:46:43.956Z,23.15